createdAt,value
2022-08-20T00:00:19.894Z,88.70
2022-08-20T00:02:54.773Z,87.80
2022-08-20T00:05:31.718Z,87.80
2022-08-20T00:08:00.398Z,88.00
2022-08-20T00:10:29.458Z,88.80
2022-08-20T00:12:57.404Z,88.00
2022-08-20T00:15:29.150Z,88.00
2022-08-20T00:17:56.855Z,88.20
2022-08-20T00:20:27.384Z,88.20
2022-08-20T00:22:54.108Z,88.70
2022-08-20T00:25:20.948Z,88.50
2022-08-20T00:27:47.811Z,88.50
2022-08-20T00:30:15.124Z,88.50
2022-08-20T00:32:57.696Z,88.70
2022-08-20T00:35:27.166Z,88.60
2022-08-20T00:37:57.443Z,88.30
2022-08-20T00:40:42.087Z,88.20
2022-08-20T00:43:27.771Z,88.30
2022-08-20T00:45:56.346Z,88.30
2022-08-20T00:48:25.745Z,88.10
2022-08-20T00:50:54.117Z,88.10
2022-08-20T00:53:22.549Z,88.20
2022-08-20T00:55:49.465Z,88.10
2022-08-20T00:58:16.128Z,88.20
2022-08-20T01:00:45.658Z,88.20
2022-08-20T01:03:16.191Z,88.20
2022-08-20T01:05:45.421Z,88.30
2022-08-20T01:08:12.856Z,88.30
2022-08-20T01:10:44.804Z,88.30
2022-08-20T01:13:15.704Z,88.60
2022-08-20T01:15:44.807Z,88.60
2022-08-20T01:18:31.208Z,88.60
2022-08-20T01:21:03.743Z,88.90
2022-08-20T01:23:54.587Z,88.90
2022-08-20T01:26:25.528Z,89.00
2022-08-20T01:29:02.119Z,89.20
2022-08-20T01:31:32.425Z,89.20
2022-08-20T01:34:00.680Z,89.30
2022-08-20T01:36:31.383Z,89.20
2022-08-20T01:38:59.226Z,89.40
2022-08-20T01:41:45.703Z,89.50
2022-08-20T01:44:18.420Z,89.80
2022-08-20T01:46:47.359Z,89.70
2022-08-20T01:49:29.288Z,89.90
2022-08-20T01:51:59.689Z,90.10
2022-08-20T01:54:27.406Z,90.10
2022-08-20T01:57:05.126Z,90.20
2022-08-20T01:59:32.256Z,90.30
2022-08-20T02:01:59.763Z,90.20
2022-08-20T02:04:27.028Z,90.30
2022-08-20T02:06:58.205Z,90.40
2022-08-20T02:09:36.767Z,90.40
2022-08-20T02:12:06.110Z,90.60
2022-08-20T02:14:33.342Z,90.50
2022-08-20T02:17:00.553Z,90.50
2022-08-20T02:19:37.090Z,90.70
2022-08-20T02:22:11.627Z,90.80
2022-08-20T02:24:38.403Z,90.80
2022-08-20T02:27:05.227Z,90.80
2022-08-20T02:29:32.177Z,90.80
2022-08-20T02:32:24.574Z,90.80
2022-08-20T02:34:46.083Z,91.00
2022-08-20T02:37:16.347Z,91.00
2022-08-20T02:39:43.218Z,91.10
2022-08-20T02:42:12.102Z,91.30
2022-08-20T02:44:39.688Z,91.40
2022-08-20T02:47:07.041Z,91.40
2022-08-20T02:49:34.956Z,91.50
2022-08-20T02:52:01.819Z,91.60
2022-08-20T02:54:29.313Z,91.50
2022-08-20T02:56:56.353Z,91.50
2022-08-20T02:59:23.255Z,91.60
2022-08-20T03:01:59.992Z,91.60
2022-08-20T03:04:28.267Z,91.60
2022-08-20T03:06:54.988Z,91.50
2022-08-20T03:09:21.833Z,91.50
2022-08-20T03:11:49.273Z,91.50
2022-08-20T03:14:15.960Z,91.50
2022-08-20T03:16:43.162Z,91.50
2022-08-20T03:19:09.918Z,91.50
2022-08-20T03:21:37.148Z,91.50
2022-08-20T03:24:04.138Z,91.40
2022-08-20T03:26:30.892Z,91.40
2022-08-20T03:28:57.798Z,91.50
2022-08-20T03:31:24.532Z,91.50
2022-08-20T03:33:53.603Z,91.50
2022-08-20T03:36:28.835Z,91.40
2022-08-20T03:38:57.470Z,91.50
2022-08-20T03:41:24.380Z,91.50
2022-08-20T03:43:51.556Z,91.60
2022-08-20T03:46:22.976Z,91.80
2022-08-20T03:48:56.593Z,91.80
2022-08-20T03:51:28.897Z,91.90
2022-08-20T03:53:55.609Z,92.00
2022-08-20T03:56:22.310Z,92.00
2022-08-20T03:58:49.090Z,92.10
2022-08-20T04:01:45.258Z,92.20
2022-08-20T04:04:02.639Z,92.30
2022-08-20T04:06:29.569Z,92.30
2022-08-20T04:08:56.713Z,92.40
2022-08-20T04:11:24.246Z,92.50
2022-08-20T04:13:51.270Z,92.60
2022-08-20T04:16:18.054Z,92.70
2022-08-20T04:18:56.221Z,92.80
2022-08-20T04:21:32.684Z,92.90
2022-08-20T04:24:01.050Z,93.00
2022-08-20T04:26:28.034Z,93.10
2022-08-20T04:28:55.552Z,93.10
2022-08-20T04:31:25.309Z,93.30
2022-08-20T04:33:52.426Z,93.40
2022-08-20T04:36:19.276Z,93.30
2022-08-20T04:38:49.414Z,93.30
2022-08-20T04:41:23.426Z,93.30
2022-08-20T04:43:55.437Z,93.30
2022-08-20T04:46:25.361Z,93.20
2022-08-20T04:48:52.071Z,93.10
2022-08-20T04:51:19.326Z,93.10
2022-08-20T04:53:53.288Z,93.10
2022-08-20T04:56:32.404Z,93.00
2022-08-20T04:59:01.033Z,93.10
2022-08-20T05:01:28.905Z,93.30
2022-08-20T05:03:57.257Z,93.00
2022-08-20T05:06:30.700Z,93.10
2022-08-20T05:08:59.050Z,93.00
2022-08-20T05:11:35.473Z,93.00
2022-08-20T05:14:08.905Z,93.00
2022-08-20T05:16:38.181Z,93.00
2022-08-20T05:19:09.813Z,92.90
2022-08-20T05:21:37.556Z,92.90
2022-08-20T05:24:05.306Z,92.90
2022-08-20T05:26:33.295Z,93.00
2022-08-20T05:29:00.027Z,93.00
2022-08-20T05:31:31.302Z,92.90
2022-08-20T05:34:10.304Z,92.90
2022-08-20T05:36:49.199Z,92.90
2022-08-20T05:39:20.569Z,92.80
2022-08-20T05:41:49.551Z,92.80
2022-08-20T05:44:16.462Z,92.80
2022-08-20T05:46:45.390Z,92.70
2022-08-20T05:49:16.231Z,92.80
2022-08-20T05:51:44.023Z,92.80
2022-08-20T05:54:11.287Z,92.90
2022-08-20T05:56:38.405Z,92.80
2022-08-20T05:59:07.006Z,92.90
2022-08-20T06:01:35.918Z,92.90
2022-08-20T06:04:21.883Z,92.90
2022-08-20T06:06:48.745Z,92.90
2022-08-20T06:09:16.657Z,92.90
2022-08-20T06:11:59.528Z,93.00
2022-08-20T06:14:26.553Z,93.10
2022-08-20T06:16:57.892Z,93.50
2022-08-20T06:19:26.956Z,93.30
2022-08-20T06:21:54.178Z,93.30
2022-08-20T06:24:21.285Z,93.40
2022-08-20T06:26:48.160Z,93.50
2022-08-20T06:29:15.916Z,93.50
2022-08-20T06:31:42.653Z,93.60
2022-08-20T06:34:09.341Z,93.50
2022-08-20T06:36:36.041Z,93.50
2022-08-20T06:39:02.749Z,93.50
2022-08-20T06:41:36.133Z,93.20
2022-08-20T06:44:04.165Z,92.90
2022-08-20T06:46:32.146Z,92.50
2022-08-20T06:48:59.161Z,92.30
2022-08-20T06:51:25.818Z,92.30
2022-08-20T06:53:52.515Z,92.40
2022-08-20T06:56:19.196Z,92.40
2022-08-20T06:58:45.887Z,92.30
2022-08-20T07:01:13.727Z,92.20
2022-08-20T07:03:54.240Z,91.90
2022-08-20T07:06:22.115Z,91.90
2022-08-20T07:08:48.854Z,91.80
2022-08-20T07:11:15.552Z,91.80
2022-08-20T07:13:42.280Z,91.80
2022-08-20T07:16:09.010Z,91.80
2022-08-20T07:18:36.364Z,91.90
2022-08-20T07:21:03.531Z,91.80
2022-08-20T07:23:31.667Z,91.70
2022-08-20T07:25:58.698Z,91.70
2022-08-20T07:28:28.921Z,91.70
2022-08-20T07:31:16.366Z,91.80
2022-08-20T07:33:44.458Z,91.80
2022-08-20T07:36:12.503Z,91.80
2022-08-20T07:38:39.603Z,91.80
2022-08-20T07:41:08.607Z,91.60
2022-08-20T07:43:35.970Z,91.50
2022-08-20T07:46:07.606Z,91.40
2022-08-20T07:48:38.933Z,91.30
2022-08-20T07:51:06.413Z,91.40
2022-08-20T07:53:36.144Z,91.40
2022-08-20T07:56:05.927Z,91.40
2022-08-20T07:58:35.717Z,91.60
2022-08-20T08:01:04.415Z,91.70
2022-08-20T08:03:39.622Z,91.80
2022-08-20T08:06:28.579Z,91.80
2022-08-20T08:09:10.276Z,91.70
2022-08-20T08:11:44.951Z,91.30
2022-08-20T08:14:14.168Z,91.20
2022-08-20T08:16:45.190Z,91.00
2022-08-20T08:19:14.207Z,90.70
2022-08-20T08:21:41.573Z,90.50
2022-08-20T08:24:08.284Z,90.20
2022-08-20T08:26:35.015Z,90.30
2022-08-20T08:29:02.561Z,90.40
2022-08-20T08:31:29.480Z,90.60
2022-08-20T08:33:56.399Z,90.90
2022-08-20T08:36:23.127Z,91.10
2022-08-20T08:38:49.816Z,91.20
2022-08-20T08:41:25.218Z,91.20
2022-08-20T08:43:53.518Z,91.20
2022-08-20T08:46:24.621Z,91.20
2022-08-20T08:48:55.953Z,91.10
2022-08-20T08:51:33.458Z,91.00
2022-08-20T08:54:05.956Z,91.10
2022-08-20T08:56:34.501Z,91.20
2022-08-20T08:59:08.520Z,91.20
2022-08-20T09:01:55.499Z,91.20
2022-08-20T09:04:31.505Z,91.10
2022-08-20T09:06:58.808Z,91.20
2022-08-20T09:09:29.303Z,91.30
2022-08-20T09:12:03.217Z,91.60
2022-08-20T09:14:29.910Z,91.90
2022-08-20T09:16:56.691Z,92.50
2022-08-20T09:19:23.543Z,93.50
2022-08-20T09:21:50.253Z,94.70
2022-08-20T09:24:17.049Z,95.60
2022-08-20T09:26:43.929Z,96.20
2022-08-20T09:29:10.648Z,96.40
2022-08-20T09:31:38.209Z,96.70
2022-08-20T09:34:05.880Z,97.10
2022-08-20T09:36:33.303Z,97.30
2022-08-20T09:39:02.805Z,97.80
2022-08-20T09:41:33.602Z,97.90
2022-08-20T09:44:01.609Z,98.20
2022-08-20T09:46:28.294Z,98.20
2022-08-20T09:48:55.356Z,98.20
2022-08-20T09:51:22.348Z,98.00
2022-08-20T09:53:49.351Z,97.90
2022-08-20T09:56:16.143Z,97.90
2022-08-20T09:58:49.763Z,97.90
2022-08-20T10:01:19.098Z,98.00
2022-08-20T10:03:49.541Z,97.40
2022-08-20T10:06:19.541Z,97.30
2022-08-20T10:08:46.487Z,97.30
2022-08-20T10:11:13.278Z,97.20
2022-08-20T10:13:40.081Z,97.20
2022-08-20T10:16:07.038Z,97.20
2022-08-20T10:18:35.368Z,97.30
2022-08-20T10:21:02.510Z,97.20
2022-08-20T10:23:29.217Z,96.80
2022-08-20T10:25:55.932Z,96.90
2022-08-20T10:28:22.625Z,96.90
2022-08-20T10:30:49.373Z,96.80
2022-08-20T10:33:16.045Z,96.30
2022-08-20T10:35:42.741Z,95.50
2022-08-20T10:38:09.700Z,94.40
2022-08-20T10:40:36.503Z,94.60
2022-08-20T10:43:03.327Z,94.60
2022-08-20T10:45:30.138Z,94.30
2022-08-20T10:48:00.132Z,93.80
2022-08-20T10:50:29.503Z,93.70
2022-08-20T10:52:57.967Z,93.50
2022-08-20T10:55:24.791Z,93.80
2022-08-20T10:57:51.732Z,92.80
2022-08-20T11:00:19.460Z,92.90
2022-08-20T11:02:46.627Z,91.90
2022-08-20T11:05:13.444Z,91.80
2022-08-20T11:07:50.548Z,91.30
2022-08-20T11:10:25.180Z,90.70
2022-08-20T11:12:51.902Z,90.50
2022-08-20T11:15:18.986Z,89.50
2022-08-20T11:17:46.139Z,89.00
2022-08-20T11:20:15.648Z,89.40
2022-08-20T11:22:42.457Z,89.70
2022-08-20T11:25:09.728Z,88.50
2022-08-20T11:27:42.492Z,88.30
2022-08-20T11:30:12.438Z,88.90
2022-08-20T11:32:39.259Z,88.40
2022-08-20T11:35:24.429Z,88.40
2022-08-20T11:37:55.546Z,89.70
2022-08-20T11:40:23.054Z,90.90
2022-08-20T11:43:13.110Z,91.50
2022-08-20T11:45:37.807Z,92.00
2022-08-20T11:48:04.883Z,92.60
2022-08-20T11:50:31.621Z,92.80
2022-08-20T11:52:58.474Z,92.80
2022-08-20T11:55:30.576Z,92.90
2022-08-20T11:57:59.692Z,92.90
2022-08-20T12:00:32.573Z,93.10
2022-08-20T12:03:01.475Z,93.30
2022-08-20T12:05:29.647Z,93.10
2022-08-20T12:07:57.323Z,92.50
2022-08-20T12:10:26.579Z,92.30
2022-08-20T12:12:53.667Z,91.90
2022-08-20T12:15:20.446Z,92.00
2022-08-20T12:17:47.212Z,91.60
2022-08-20T12:20:14.826Z,91.20
2022-08-20T12:22:41.624Z,91.20
2022-08-20T12:25:09.207Z,91.10
2022-08-20T12:27:36.932Z,91.00
2022-08-20T12:30:10.168Z,90.90
2022-08-20T12:32:37.185Z,90.40
2022-08-20T12:35:05.098Z,90.10
2022-08-20T12:37:32.563Z,90.10
2022-08-20T12:40:01.241Z,89.80
2022-08-20T12:42:30.449Z,88.60
2022-08-20T12:44:58.633Z,86.70
2022-08-20T12:47:30.714Z,86.40
2022-08-20T12:50:01.631Z,85.20
2022-08-20T12:52:29.660Z,84.90
2022-08-20T12:54:57.438Z,84.70
2022-08-20T12:57:28.613Z,84.30
2022-08-20T12:59:57.043Z,84.60
2022-08-20T13:02:26.085Z,84.50
2022-08-20T13:04:53.222Z,84.60
2022-08-20T13:07:21.235Z,83.30
2022-08-20T13:09:47.936Z,83.50
2022-08-20T13:12:14.818Z,84.30
2022-08-20T13:14:42.094Z,82.60
2022-08-20T13:17:09.338Z,80.90
2022-08-20T13:19:37.467Z,79.30
2022-08-20T13:22:04.920Z,77.80
2022-08-20T13:24:31.765Z,78.20
2022-08-20T13:27:10.399Z,77.90
2022-08-20T13:29:37.321Z,76.40
2022-08-20T13:32:05.141Z,76.90
2022-08-20T13:34:32.144Z,77.10
2022-08-20T13:36:58.916Z,77.00
2022-08-20T13:39:25.581Z,76.80
2022-08-20T13:41:52.281Z,76.80
2022-08-20T13:44:19.131Z,75.80
2022-08-20T13:46:47.163Z,76.00
2022-08-20T13:49:13.848Z,75.80
2022-08-20T13:51:40.557Z,74.50
2022-08-20T13:54:07.210Z,75.10
2022-08-20T13:56:37.544Z,74.70
2022-08-20T13:59:04.230Z,73.00
2022-08-20T14:01:31.004Z,72.90
2022-08-20T14:03:57.774Z,72.90
2022-08-20T14:06:24.476Z,72.40
2022-08-20T14:08:51.162Z,71.40
2022-08-20T14:11:18.022Z,71.50
2022-08-20T14:13:44.741Z,71.10
2022-08-20T14:16:21.460Z,70.50
2022-08-20T14:18:55.473Z,69.30
2022-08-20T14:21:22.341Z,68.10
2022-08-20T14:23:49.224Z,68.20
2022-08-20T14:26:15.902Z,68.80
2022-08-20T14:28:42.706Z,69.00
2022-08-20T14:31:09.876Z,68.40
2022-08-20T14:33:38.458Z,68.50
2022-08-20T14:36:07.174Z,67.60
2022-08-20T14:38:34.116Z,67.10
2022-08-20T14:41:03.640Z,66.40
2022-08-20T14:43:30.307Z,65.00
2022-08-20T14:45:56.964Z,64.40
2022-08-20T14:48:25.447Z,65.00
2022-08-20T14:50:55.352Z,65.20
2022-08-20T14:53:22.356Z,65.30
2022-08-20T14:55:49.021Z,64.40
2022-08-20T14:58:17.098Z,63.80
2022-08-20T15:00:44.452Z,63.10
2022-08-20T15:03:13.313Z,62.60
2022-08-20T15:05:40.378Z,63.80
2022-08-20T15:08:07.638Z,63.10
2022-08-20T15:10:34.537Z,63.40
2022-08-20T15:13:02.416Z,62.70
2022-08-20T15:15:29.249Z,62.60
2022-08-20T15:17:57.762Z,63.10
2022-08-20T15:20:26.935Z,62.60
2022-08-20T15:22:54.475Z,63.00
2022-08-20T15:25:24.193Z,61.70
2022-08-20T15:27:51.542Z,61.00
2022-08-20T15:30:21.410Z,60.50
2022-08-20T15:32:54.183Z,60.40
2022-08-20T15:35:26.090Z,60.20
2022-08-20T15:37:55.265Z,60.90
2022-08-20T15:40:27.880Z,60.60
2022-08-20T15:42:59.268Z,60.40
2022-08-20T15:45:26.882Z,60.10
2022-08-20T15:47:59.903Z,60.40
2022-08-20T15:50:44.789Z,60.90
2022-08-20T15:53:16.980Z,60.60
2022-08-20T15:55:52.033Z,60.50
2022-08-20T15:58:32.068Z,60.40
2022-08-20T16:01:32.398Z,60.00
2022-08-20T16:04:20.082Z,60.30
2022-08-20T16:06:51.107Z,60.30
2022-08-20T16:09:36.754Z,59.80
2022-08-20T16:12:19.992Z,59.40
2022-08-20T16:14:47.874Z,59.10
2022-08-20T16:17:39.086Z,58.90
2022-08-20T16:20:12.006Z,59.30
2022-08-20T16:22:43.197Z,58.80
2022-08-20T16:25:11.601Z,59.30
2022-08-20T16:27:53.537Z,59.20
2022-08-20T16:30:42.797Z,59.20
2022-08-20T16:33:24.618Z,58.80
2022-08-20T16:35:57.147Z,58.60
2022-08-20T16:38:56.797Z,58.90
2022-08-20T16:41:39.952Z,58.70
2022-08-20T16:44:28.733Z,58.60
2022-08-20T16:47:13.685Z,58.10
2022-08-20T16:50:02.113Z,58.50
2022-08-20T16:52:29.059Z,57.90
2022-08-20T16:54:56.261Z,57.60
2022-08-20T16:57:22.971Z,56.30
2022-08-20T17:00:12.346Z,56.00
2022-08-20T17:03:00.600Z,56.50
2022-08-20T17:05:49.678Z,56.50
2022-08-20T17:08:22.987Z,56.00
2022-08-20T17:10:57.433Z,55.30
2022-08-20T17:13:28.610Z,56.10
2022-08-20T17:15:59.849Z,56.00
2022-08-20T17:18:37.835Z,56.00
2022-08-20T17:21:12.135Z,56.50
2022-08-20T17:23:55.324Z,56.50
2022-08-20T17:26:42.126Z,56.10
2022-08-20T17:29:20.165Z,55.80
2022-08-20T17:31:55.849Z,56.30
2022-08-20T17:34:31.678Z,55.10
2022-08-20T17:37:07.907Z,55.10
2022-08-20T17:39:34.781Z,55.20
2022-08-20T17:42:08.834Z,55.50
2022-08-20T17:44:42.572Z,56.20
2022-08-20T17:47:14.857Z,56.10
2022-08-20T17:50:00.470Z,56.50
2022-08-20T17:52:44.466Z,56.80
2022-08-20T17:55:12.253Z,56.50
2022-08-20T17:57:42.862Z,56.80
2022-08-20T18:00:17.166Z,56.70
2022-08-20T18:02:44.391Z,57.00
2022-08-20T18:05:20.385Z,57.40
2022-08-20T18:08:11.751Z,57.20
2022-08-20T18:10:52.089Z,57.40
2022-08-20T18:13:20.720Z,57.80
2022-08-20T18:15:56.936Z,57.90
2022-08-20T18:18:56.263Z,58.10
2022-08-20T18:21:32.872Z,58.20
2022-08-20T18:24:03.662Z,58.30
2022-08-20T18:26:56.659Z,58.70
2022-08-20T18:29:30.130Z,59.00
2022-08-20T18:31:59.811Z,58.80
2022-08-20T18:34:29.648Z,59.10
2022-08-20T18:37:03.184Z,59.30
2022-08-20T18:39:33.480Z,59.90
2022-08-20T18:42:06.407Z,59.70
2022-08-20T18:44:43.902Z,60.00
2022-08-20T18:47:34.382Z,60.20
2022-08-20T18:50:15.890Z,60.40
2022-08-20T18:53:13.311Z,60.70
2022-08-20T18:55:43.851Z,60.80
2022-08-20T18:58:15.960Z,61.10
2022-08-20T19:00:49.165Z,61.10
2022-08-20T19:03:23.211Z,61.20
2022-08-20T19:06:15.751Z,61.20
2022-08-20T19:08:49.948Z,61.10
2022-08-20T19:11:57.362Z,61.10
2022-08-20T19:14:39.047Z,60.90
2022-08-20T19:17:10.776Z,61.00
2022-08-20T19:19:38.105Z,60.90
2022-08-20T19:22:05.418Z,61.20
2022-08-20T19:24:34.879Z,60.70
2022-08-20T19:27:07.938Z,60.90
2022-08-20T19:29:39.433Z,60.90
2022-08-20T19:32:09.587Z,61.00
2022-08-20T19:34:36.633Z,61.20
2022-08-20T19:37:34.754Z,61.30
2022-08-20T19:39:57.341Z,61.40
2022-08-20T19:42:27.509Z,61.60
2022-08-20T19:45:09.819Z,61.60
2022-08-20T19:47:37.821Z,61.70
2022-08-20T19:50:37.585Z,61.90
2022-08-20T19:53:30.499Z,62.00
2022-08-20T19:56:14.034Z,62.10
2022-08-20T19:58:41.100Z,62.30
2022-08-20T20:01:20.546Z,62.40
2022-08-20T20:04:05.602Z,62.60
2022-08-20T20:06:36.421Z,62.70
2022-08-20T20:09:07.115Z,62.90
2022-08-20T20:11:37.791Z,63.10
2022-08-20T20:14:08.268Z,63.10
2022-08-20T20:16:35.742Z,63.10
2022-08-20T20:19:25.394Z,63.20
2022-08-20T20:22:19.543Z,63.20
2022-08-20T20:25:04.975Z,63.20
2022-08-20T20:27:33.014Z,63.00
2022-08-20T20:30:08.696Z,62.90
2022-08-20T20:32:43.155Z,62.90
2022-08-20T20:35:10.035Z,62.70
2022-08-20T20:37:50.211Z,62.60
2022-08-20T20:40:25.353Z,62.20
2022-08-20T20:43:06.367Z,62.20
2022-08-20T20:45:40.134Z,61.90
2022-08-20T20:48:28.530Z,61.60
2022-08-20T20:51:01.249Z,61.40
2022-08-20T20:53:50.907Z,61.20
2022-08-20T20:56:26.554Z,61.10
2022-08-20T20:58:55.645Z,61.20
2022-08-20T21:01:27.191Z,61.10
2022-08-20T21:04:09.845Z,61.30
2022-08-20T21:06:36.756Z,61.40
2022-08-20T21:09:03.475Z,61.40
2022-08-20T21:11:30.137Z,61.50
2022-08-20T21:13:56.838Z,61.50
2022-08-20T21:16:23.569Z,61.50
2022-08-20T21:18:50.325Z,61.50
2022-08-20T21:21:17.059Z,61.60
2022-08-20T21:23:43.879Z,61.40
2022-08-20T21:26:10.581Z,61.30
2022-08-20T21:28:37.404Z,61.10
2022-08-20T21:31:04.235Z,60.90
2022-08-20T21:33:30.942Z,60.80
2022-08-20T21:35:57.709Z,60.60
2022-08-20T21:38:24.987Z,60.40
2022-08-20T21:40:51.932Z,60.30
2022-08-20T21:43:19.155Z,60.10
2022-08-20T21:45:46.180Z,59.90
2022-08-20T21:48:16.909Z,59.80
2022-08-20T21:50:43.664Z,59.70
2022-08-20T21:53:12.453Z,59.80
2022-08-20T21:55:40.288Z,59.70
2022-08-20T21:58:07.471Z,59.60
2022-08-20T22:00:59.552Z,59.60
2022-08-20T22:03:29.338Z,59.60
2022-08-20T22:05:58.889Z,59.60
2022-08-20T22:08:26.175Z,59.60
2022-08-20T22:10:57.129Z,59.50
2022-08-20T22:13:25.840Z,59.50
2022-08-20T22:15:52.689Z,59.60
2022-08-20T22:18:19.600Z,59.70
2022-08-20T22:20:46.336Z,59.70
2022-08-20T22:23:12.981Z,59.70
2022-08-20T22:25:40.309Z,59.90
2022-08-20T22:28:07.099Z,60.10
2022-08-20T22:30:33.865Z,60.30
2022-08-20T22:33:03.870Z,60.40
2022-08-20T22:35:32.238Z,60.70
2022-08-20T22:37:59.102Z,60.70
2022-08-20T22:40:26.275Z,60.80
2022-08-20T22:42:52.983Z,60.90
2022-08-20T22:45:20.265Z,61.00
2022-08-20T22:47:46.987Z,61.00
2022-08-20T22:50:14.870Z,61.10
2022-08-20T22:52:45.342Z,61.30
2022-08-20T22:55:12.704Z,61.50
2022-08-20T22:57:39.640Z,61.70
2022-08-20T23:00:10.173Z,61.90
2022-08-20T23:02:37.028Z,62.00
2022-08-20T23:05:04.309Z,62.10
2022-08-20T23:07:31.078Z,62.10
2022-08-20T23:09:57.796Z,62.30
2022-08-20T23:12:24.478Z,62.30
2022-08-20T23:14:52.572Z,62.40
2022-08-20T23:17:19.491Z,62.50
2022-08-20T23:19:48.542Z,62.50
2022-08-20T23:22:15.454Z,62.70
2022-08-20T23:24:42.162Z,62.70
2022-08-20T23:27:12.369Z,62.80
2022-08-20T23:29:39.132Z,63.10
2022-08-20T23:32:06.023Z,63.20
2022-08-20T23:34:32.777Z,63.30
2022-08-20T23:37:00.565Z,63.30
2022-08-20T23:39:28.491Z,63.20
2022-08-20T23:41:55.923Z,63.20
2022-08-20T23:44:25.278Z,63.20
2022-08-20T23:47:00.593Z,63.20
2022-08-20T23:49:28.357Z,63.20
2022-08-20T23:51:55.765Z,63.30
2022-08-20T23:54:22.471Z,63.40
2022-08-20T23:56:49.469Z,63.70
2022-08-20T23:59:16.281Z,63.70
